sensor_id;sensor_type;location;lat;lon;timestamp;pressure;altitude;pressure_sealevel;temperature;humidity
75577;BME280;64157;50.138;14.544;2022-10-16T01:14:57;98415.19;;;13.87;86.03
75577;BME280;64157;50.138;14.544;2022-10-16T01:39:26;98333.72;;;12.65;89.26
75577;BME280;64157;50.138;14.544;2022-10-16T01:56:45;98297.44;;;12.31;89.48
75577;BME280;64157;50.138;14.544;2022-10-16T03:24:55;98450.75;;;13.81;84.84
75577;BME280;64157;50.138;14.544;2022-10-16T03:38:19;98320.06;;;12.95;84.85
75577;BME280;64157;50.138;14.544;2022-10-16T03:47:53;98435.13;;;13.50;85.57
75577;BME280;64157;50.138;14.544;2022-10-16T03:54:41;98350.25;;;12.81;86.31
75577;BME280;64157;50.138;14.544;2022-10-16T03:58:12;98355.56;;;12.70;87.10
75577;BME280;64157;50.138;14.544;2022-10-16T07:52:10;98561.03;;;13.88;83.54
75577;BME280;64157;50.138;14.544;2022-10-16T07:54:39;98626.66;;;14.41;83.24
75577;BME280;64157;50.138;14.544;2022-10-16T07:57:11;98540.56;;;13.96;82.58
75577;BME280;64157;50.138;14.544;2022-10-16T07:59:44;98605.53;;;14.37;83.04
75577;BME280;64157;50.138;14.544;2022-10-16T08:09:19;98593.78;;;14.43;81.77
75577;BME280;64157;50.138;14.544;2022-10-16T08:11:51;98613.09;;;14.59;81.52
75577;BME280;64157;50.138;14.544;2022-10-16T08:14:52;98668.84;;;14.93;81.06
75577;BME280;64157;50.138;14.544;2022-10-16T08:27:47;98547.81;;;14.46;79.71
75577;BME280;64157;50.138;14.544;2022-10-16T08:30:42;98582.47;;;14.78;79.18
75577;BME280;64157;50.138;14.544;2022-10-16T08:37:39;98576.34;;;14.92;78.70
75577;BME280;64157;50.138;14.544;2022-10-16T08:40:18;98609.44;;;15.27;78.17
75577;BME280;64157;50.138;14.544;2022-10-16T08:43:09;98682.13;;;15.82;78.16
75577;BME280;64157;50.138;14.544;2022-10-16T08:48:34;98622.75;;;15.44;77.88
75577;BME280;64157;50.138;14.544;2022-10-16T08:58:19;98581.41;;;15.13;77.30
75577;BME280;64157;50.138;14.544;2022-10-16T10:19:09;98762.53;;;24.98;47.71
75577;BME280;64157;50.138;14.544;2022-10-16T12:35:44;98742.00;;;21.93;58.87
75577;BME280;64157;50.138;14.544;2022-10-16T12:38:17;98739.88;;;21.66;59.03
75577;BME280;64157;50.138;14.544;2022-10-16T12:40:46;98741.75;;;21.35;60.45
75577;BME280;64157;50.138;14.544;2022-10-16T12:48:44;98718.63;;;21.65;58.65
75577;BME280;64157;50.138;14.544;2022-10-16T12:53:45;98737.94;;;22.69;55.64
75577;BME280;64157;50.138;14.544;2022-10-16T12:56:16;98743.84;;;22.78;55.51
75577;BME280;64157;50.138;14.544;2022-10-16T13:09:37;98752.81;;;20.94;61.59
75577;BME280;64157;50.138;14.544;2022-10-16T13:12:17;98744.84;;;20.89;60.83
75577;BME280;64157;50.138;14.544;2022-10-16T13:23:23;98764.22;;;21.32;60.21
75577;BME280;64157;50.138;14.544;2022-10-16T13:28:30;98766.63;;;21.33;59.60
75577;BME280;64157;50.138;14.544;2022-10-16T13:30:59;98763.00;;;21.36;59.48
75577;BME280;64157;50.138;14.544;2022-10-16T13:35:57;98773.88;;;21.24;60.99
75577;BME280;64157;50.138;14.544;2022-10-16T13:38:26;98756.31;;;21.09;60.98
75577;BME280;64157;50.138;14.544;2022-10-16T13:40:57;98776.72;;;21.20;60.42
75577;BME280;64157;50.138;14.544;2022-10-16T13:43:43;98779.53;;;21.17;60.92
75577;BME280;64157;50.138;14.544;2022-10-16T13:48:38;98777.97;;;21.08;61.85
75577;BME280;64157;50.138;14.544;2022-10-16T13:51:13;98786.44;;;20.98;62.08
75577;BME280;64157;50.138;14.544;2022-10-16T13:53:39;98783.72;;;20.87;62.31
75577;BME280;64157;50.138;14.544;2022-10-16T13:56:10;98784.19;;;20.71;63.05
75577;BME280;64157;50.138;14.544;2022-10-16T13:58:36;98777.06;;;20.53;63.46
75577;BME280;64157;50.138;14.544;2022-10-16T14:01:19;98785.47;;;20.53;64.03
75577;BME280;64157;50.138;14.544;2022-10-16T14:03:49;98783.06;;;20.55;63.01
75577;BME280;64157;50.138;14.544;2022-10-16T14:06:18;98775.06;;;20.50;63.79
75577;BME280;64157;50.138;14.544;2022-10-16T14:08:50;98783.88;;;20.48;63.85
75577;BME280;64157;50.138;14.544;2022-10-16T14:11:23;98782.72;;;20.39;64.35
75577;BME280;64157;50.138;14.544;2022-10-16T14:13:50;98773.53;;;20.27;64.14
75577;BME280;64157;50.138;14.544;2022-10-16T14:16:22;98789.91;;;20.32;64.77
75577;BME280;64157;50.138;14.544;2022-10-16T14:19:03;98800.75;;;20.30;64.86
75577;BME280;64157;50.138;14.544;2022-10-16T14:21:30;98789.94;;;20.22;64.65
75577;BME280;64157;50.138;14.544;2022-10-16T14:23:57;98789.13;;;20.25;64.90
75577;BME280;64157;50.138;14.544;2022-10-16T14:26:24;98799.16;;;20.19;64.56
75577;BME280;64157;50.138;14.544;2022-10-16T14:29:10;98791.16;;;20.10;65.51
75577;BME280;64157;50.138;14.544;2022-10-16T14:31:36;98773.59;;;19.95;64.69
75577;BME280;64157;50.138;14.544;2022-10-16T14:34:02;98782.38;;;20.08;65.02
75577;BME280;64157;50.138;14.544;2022-10-16T14:36:29;98768.75;;;20.07;64.73
75577;BME280;64157;50.138;14.544;2022-10-16T14:39:04;98785.56;;;20.03;65.62
75577;BME280;64157;50.138;14.544;2022-10-16T14:41:32;98788.00;;;20.01;65.64
75577;BME280;64157;50.138;14.544;2022-10-16T14:44:03;98776.78;;;19.90;65.75
75577;BME280;64157;50.138;14.544;2022-10-16T14:46:35;98780.81;;;19.86;66.25
75577;BME280;64157;50.138;14.544;2022-10-16T14:49:17;98769.59;;;19.72;66.09
75577;BME280;64157;50.138;14.544;2022-10-16T14:51:46;98780.41;;;19.77;66.73
75577;BME280;64157;50.138;14.544;2022-10-16T14:54:13;98772.84;;;19.66;66.52
75577;BME280;64157;50.138;14.544;2022-10-16T14:56:52;98792.41;;;19.74;66.84
75577;BME280;64157;50.138;14.544;2022-10-16T14:59:23;98792.81;;;19.79;66.44
75577;BME280;64157;50.138;14.544;2022-10-16T15:01:50;98772.44;;;19.68;66.01
75577;BME280;64157;50.138;14.544;2022-10-16T15:04:16;98769.59;;;19.72;65.54
75577;BME280;64157;50.138;14.544;2022-10-16T15:06:42;98772.03;;;19.80;65.44
75577;BME280;64157;50.138;14.544;2022-10-16T15:09:08;98800.81;;;19.98;65.59
75577;BME280;64157;50.138;14.544;2022-10-16T15:11:33;98791.59;;;19.98;65.44
75577;BME280;64157;50.138;14.544;2022-10-16T15:13:59;98770.38;;;19.86;65.71
75577;BME280;64157;50.138;14.544;2022-10-16T15:16:24;98779.19;;;19.99;65.13
75577;BME280;64157;50.138;14.544;2022-10-16T15:18:50;98795.19;;;20.13;64.91
75577;BME280;64157;50.138;14.544;2022-10-16T15:21:33;98786.41;;;19.86;66.17
75577;BME280;64157;50.138;14.544;2022-10-16T15:24:00;98806.00;;;20.00;65.60
75577;BME280;64157;50.138;14.544;2022-10-16T15:26:27;98784.03;;;19.81;65.52
75577;BME280;64157;50.138;14.544;2022-10-16T15:28:53;98764.00;;;19.72;65.69
75577;BME280;64157;50.138;14.544;2022-10-16T15:31:19;98803.22;;;19.79;66.27
75577;BME280;64157;50.138;14.544;2022-10-16T15:33:45;98787.63;;;19.60;66.62
75577;BME280;64157;50.138;14.544;2022-10-16T15:36:16;98786.78;;;19.49;66.97
75577;BME280;64157;50.138;14.544;2022-10-16T15:38:42;98811.19;;;19.48;67.58
75577;BME280;64157;50.138;14.544;2022-10-16T15:41:07;98777.97;;;19.08;68.56
75577;BME280;64157;50.138;14.544;2022-10-16T15:43:32;98803.94;;;19.12;68.78
75577;BME280;64157;50.138;14.544;2022-10-16T15:46:09;98805.13;;;19.04;69.30
75577;BME280;64157;50.138;14.544;2022-10-16T15:48:36;98771.50;;;18.79;69.58
75577;BME280;64157;50.138;14.544;2022-10-16T15:51:07;98792.28;;;18.85;69.95
75577;BME280;64157;50.138;14.544;2022-10-16T15:53:33;98806.66;;;18.87;70.24
75577;BME280;64157;50.138;14.544;2022-10-16T15:56:06;98820.59;;;18.80;70.68
75577;BME280;64157;50.138;14.544;2022-10-16T15:58:32;98795.78;;;18.64;70.82
75577;BME280;64157;50.138;14.544;2022-10-16T16:01:01;98798.09;;;18.51;71.00
75577;BME280;64157;50.138;14.544;2022-10-16T16:03:27;98824.19;;;18.73;70.87
75577;BME280;64157;50.138;14.544;2022-10-16T16:05:53;98820.94;;;18.60;71.53
75577;BME280;64157;50.138;14.544;2022-10-16T16:08:18;98830.06;;;18.54;71.65
75577;BME280;64157;50.138;14.544;2022-10-16T16:10:44;98840.38;;;18.43;72.44
75577;BME280;64157;50.138;14.544;2022-10-16T16:13:10;98834.81;;;18.46;71.65
75577;BME280;64157;50.138;14.544;2022-10-16T16:15:38;98833.97;;;18.39;71.68
75577;BME280;64157;50.138;14.544;2022-10-16T16:18:04;98812.72;;;18.16;72.54
75577;BME280;64157;50.138;14.544;2022-10-16T16:20:31;98812.66;;;18.09;72.47
75577;BME280;64157;50.138;14.544;2022-10-16T16:22:56;98847.81;;;18.17;73.17
75577;BME280;64157;50.138;14.544;2022-10-16T16:25:22;98843.75;;;18.08;73.28
75577;BME280;64157;50.138;14.544;2022-10-16T16:27:48;98847.25;;;17.94;73.90
75577;BME280;64157;50.138;14.544;2022-10-16T16:30:13;98856.78;;;17.86;74.37
75577;BME280;64157;50.138;14.544;2022-10-16T16:32:39;98819.78;;;17.52;74.70
75577;BME280;64157;50.138;14.544;2022-10-16T16:35:04;98827.81;;;17.61;74.48
75577;BME280;64157;50.138;14.544;2022-10-16T16:37:30;98863.00;;;17.69;74.47
75577;BME280;64157;50.138;14.544;2022-10-16T16:39:56;98865.78;;;17.69;74.28
75577;BME280;64157;50.138;14.544;2022-10-16T16:42:25;98843.63;;;17.46;74.47
75577;BME280;64157;50.138;14.544;2022-10-16T16:44:50;98867.63;;;17.57;74.65
75577;BME280;64157;50.138;14.544;2022-10-16T16:47:16;98879.16;;;17.52;74.66
75577;BME280;64157;50.138;14.544;2022-10-16T16:49:41;98874.63;;;17.37;75.15
75577;BME280;64157;50.138;14.544;2022-10-16T16:52:07;98877.28;;;17.27;75.24
75577;BME280;64157;50.138;14.544;2022-10-16T16:54:33;98888.84;;;17.25;75.61
75577;BME280;64157;50.138;14.544;2022-10-16T16:56:58;98872.03;;;17.18;75.25
75577;BME280;64157;50.138;14.544;2022-10-16T16:59:24;98896.38;;;17.21;75.45
75577;BME280;64157;50.138;14.544;2022-10-16T17:01:49;98885.47;;;17.09;75.90
75577;BME280;64157;50.138;14.544;2022-10-16T17:04:17;98906.38;;;17.26;74.93
75577;BME280;64157;50.138;14.544;2022-10-16T17:06:44;98891.91;;;17.16;75.33
75577;BME280;64157;50.138;14.544;2022-10-16T17:09:10;98898.63;;;17.12;75.43
75577;BME280;64157;50.138;14.544;2022-10-16T17:11:38;98905.44;;;17.14;75.41
75577;BME280;64157;50.138;14.544;2022-10-16T17:14:06;98904.19;;;17.08;75.54
75577;BME280;64157;50.138;14.544;2022-10-16T17:16:34;98864.84;;;16.83;75.06
75577;BME280;64157;50.138;14.544;2022-10-16T17:19:08;98898.06;;;16.96;75.05
75577;BME280;64157;50.138;14.544;2022-10-16T17:21:36;98916.41;;;17.00;75.13
75577;BME280;64157;50.138;14.544;2022-10-16T17:24:02;98924.16;;;17.14;74.36
75577;BME280;64157;50.138;14.544;2022-10-16T17:26:28;98919.81;;;17.16;74.30
75577;BME280;64157;50.138;14.544;2022-10-16T17:28:56;98897.81;;;17.08;73.98
75577;BME280;64157;50.138;14.544;2022-10-16T17:31:26;98929.91;;;17.28;73.90
75577;BME280;64157;50.138;14.544;2022-10-16T17:33:51;98935.84;;;17.23;74.34
75577;BME280;64157;50.138;14.544;2022-10-16T17:36:18;98931.75;;;17.17;74.11
75577;BME280;64157;50.138;14.544;2022-10-16T17:38:44;98893.19;;;16.89;74.05
75577;BME280;64157;50.138;14.544;2022-10-16T17:41:12;98896.53;;;17.02;73.55
75577;BME280;64157;50.138;14.544;2022-10-16T17:43:38;98937.59;;;17.38;73.03
75577;BME280;64157;50.138;14.544;2022-10-16T17:46:05;98931.16;;;17.34;73.04
75577;BME280;64157;50.138;14.544;2022-10-16T17:48:30;98934.81;;;17.38;72.33
75577;BME280;64157;50.138;14.544;2022-10-16T17:50:56;98934.38;;;17.36;72.71
75577;BME280;64157;50.138;14.544;2022-10-16T17:53:21;98937.88;;;17.30;72.82
75577;BME280;64157;50.138;14.544;2022-10-16T17:55:47;98929.34;;;17.15;73.57
75577;BME280;64157;50.138;14.544;2022-10-16T17:58:12;98950.97;;;17.22;73.79
75577;BME280;64157;50.138;14.544;2022-10-16T18:00:38;98959.78;;;16.98;74.63
75577;BME280;64157;50.138;14.544;2022-10-16T18:03:03;98962.38;;;16.80;75.35
75577;BME280;64157;50.138;14.544;2022-10-16T18:05:28;98971.13;;;16.82;75.82
75577;BME280;64157;50.138;14.544;2022-10-16T18:07:54;98954.78;;;16.54;76.50
75577;BME280;64157;50.138;14.544;2022-10-16T18:10:19;98972.47;;;16.65;76.78
75577;BME280;64157;50.138;14.544;2022-10-16T18:12:45;98980.72;;;16.58;76.97
75577;BME280;64157;50.138;14.544;2022-10-16T18:15:11;98975.56;;;16.60;77.13
75577;BME280;64157;50.138;14.544;2022-10-16T18:17:37;98948.09;;;16.32;77.34
75577;BME280;64157;50.138;14.544;2022-10-16T18:20:04;98952.59;;;16.40;77.35
75577;BME280;64157;50.138;14.544;2022-10-16T18:22:32;98948.94;;;16.36;77.34
75577;BME280;64157;50.138;14.544;2022-10-16T18:25:00;98953.53;;;16.25;77.93
75577;BME280;64157;50.138;14.544;2022-10-16T18:27:28;98980.88;;;16.42;77.66
75577;BME280;64157;50.138;14.544;2022-10-16T18:29:54;98985.34;;;16.47;77.70
75577;BME280;64157;50.138;14.544;2022-10-16T18:32:25;98991.91;;;16.62;76.96
75577;BME280;64157;50.138;14.544;2022-10-16T18:34:51;98961.28;;;16.62;76.31
75577;BME280;64157;50.138;14.544;2022-10-16T18:37:18;99000.59;;;16.79;76.95
75577;BME280;64157;50.138;14.544;2022-10-16T18:39:47;99007.22;;;16.71;77.30
75577;BME280;64157;50.138;14.544;2022-10-16T18:42:14;99010.81;;;16.72;77.78
75577;BME280;64157;50.138;14.544;2022-10-16T18:44:40;98974.66;;;16.52;77.92
75577;BME280;64157;50.138;14.544;2022-10-16T18:47:05;98988.22;;;16.54;78.40
75577;BME280;64157;50.138;14.544;2022-10-16T18:49:31;99000.91;;;16.51;78.78
75577;BME280;64157;50.138;14.544;2022-10-16T18:51:56;99004.41;;;16.45;79.06
75577;BME280;64157;50.138;14.544;2022-10-16T18:54:23;98988.28;;;16.35;78.91
75577;BME280;64157;50.138;14.544;2022-10-16T18:56:50;98979.31;;;16.18;79.29
75577;BME280;64157;50.138;14.544;2022-10-16T18:59:16;99013.63;;;16.26;79.77
75577;BME280;64157;50.138;14.544;2022-10-16T19:01:41;99013.13;;;16.21;80.00
75577;BME280;64157;50.138;14.544;2022-10-16T19:04:12;99004.84;;;16.01;80.58
75577;BME280;64157;50.138;14.544;2022-10-16T19:06:41;98981.31;;;15.76;81.22
75577;BME280;64157;50.138;14.544;2022-10-16T19:09:07;99006.22;;;15.88;81.20
75577;BME280;64157;50.138;14.544;2022-10-16T19:11:33;99009.22;;;15.79;81.84
75577;BME280;64157;50.138;14.544;2022-10-16T19:13:59;99016.63;;;15.72;81.93
75577;BME280;64157;50.138;14.544;2022-10-16T19:16:28;99014.41;;;15.81;81.79
75577;BME280;64157;50.138;14.544;2022-10-16T19:18:57;99010.75;;;15.77;81.75
75577;BME280;64157;50.138;14.544;2022-10-16T19:21:24;99014.94;;;15.67;81.69
75577;BME280;64157;50.138;14.544;2022-10-16T19:23:51;98973.81;;;15.38;81.68
75577;BME280;64157;50.138;14.544;2022-10-16T19:26:18;98991.81;;;15.44;82.06
75577;BME280;64157;50.138;14.544;2022-10-16T19:28:44;99023.47;;;15.55;82.58
75577;BME280;64157;50.138;14.544;2022-10-16T19:31:20;99036.66;;;15.58;82.39
75577;BME280;64157;50.138;14.544;2022-10-16T19:33:46;99038.00;;;15.48;82.75
75577;BME280;64157;50.138;14.544;2022-10-16T19:36:21;99027.91;;;15.40;82.91
75577;BME280;64157;50.138;14.544;2022-10-16T19:39:13;99052.13;;;15.40;83.18
75577;BME280;64157;50.138;14.544;2022-10-16T19:41:38;99020.56;;;15.13;83.51
75577;BME280;64157;50.138;14.544;2022-10-16T19:44:07;99032.88;;;15.12;83.98
75577;BME280;64157;50.138;14.544;2022-10-16T19:46:33;99051.03;;;15.25;84.00
75577;BME280;64157;50.138;14.544;2022-10-16T19:49:03;99065.19;;;15.20;84.18
75577;BME280;64157;50.138;14.544;2022-10-16T19:51:29;99073.19;;;15.22;83.77
75577;BME280;64157;50.138;14.544;2022-10-16T19:54:00;99078.38;;;15.23;84.17
75577;BME280;64157;50.138;14.544;2022-10-16T19:56:28;99058.53;;;15.05;84.04
75577;BME280;64157;50.138;14.544;2022-10-16T19:58:55;99047.97;;;14.95;84.32
75577;BME280;64157;50.138;14.544;2022-10-16T20:01:21;99072.50;;;15.09;84.19
75577;BME280;64157;50.138;14.544;2022-10-16T20:03:48;99058.69;;;14.77;84.58
75577;BME280;64157;50.138;14.544;2022-10-16T20:06:15;99091.53;;;14.91;85.26
75577;BME280;64157;50.138;14.544;2022-10-16T20:08:41;99074.63;;;14.81;84.98
75577;BME280;64157;50.138;14.544;2022-10-16T20:11:13;99084.13;;;14.80;84.94
75577;BME280;64157;50.138;14.544;2022-10-16T20:13:38;99072.50;;;14.58;85.54
75577;BME280;64157;50.138;14.544;2022-10-16T20:16:04;99084.41;;;14.59;85.86
75577;BME280;64157;50.138;14.544;2022-10-16T20:18:31;99106.00;;;14.65;85.71
75577;BME280;64157;50.138;14.544;2022-10-16T20:20:58;99094.56;;;14.51;86.17
75577;BME280;64157;50.138;14.544;2022-10-16T20:23:24;99095.25;;;14.48;86.28
75577;BME280;64157;50.138;14.544;2022-10-16T20:25:49;99074.63;;;14.33;86.34
75577;BME280;64157;50.138;14.544;2022-10-16T20:28:20;99098.81;;;14.33;86.85
75577;BME280;64157;50.138;14.544;2022-10-16T20:30:48;99076.22;;;14.19;87.14
75577;BME280;64157;50.138;14.544;2022-10-16T20:33:14;99102.75;;;14.32;87.40
75577;BME280;64157;50.138;14.544;2022-10-16T20:35:42;99098.34;;;14.31;87.46
75577;BME280;64157;50.138;14.544;2022-10-16T20:38:08;99101.22;;;14.34;87.83
75577;BME280;64157;50.138;14.544;2022-10-16T20:40:35;99070.84;;;14.26;87.69
75577;BME280;64157;50.138;14.544;2022-10-16T20:43:01;99082.78;;;14.42;87.72
75577;BME280;64157;50.138;14.544;2022-10-16T20:45:27;99082.44;;;14.43;87.71
75577;BME280;64157;50.138;14.544;2022-10-16T20:47:52;99044.78;;;14.15;87.69
75577;BME280;64157;50.138;14.544;2022-10-16T20:50:18;99069.16;;;14.37;87.26
75577;BME280;64157;50.138;14.544;2022-10-16T20:52:43;99074.47;;;14.42;87.30
75577;BME280;64157;50.138;14.544;2022-10-16T20:55:09;99073.75;;;14.45;87.23
75577;BME280;64157;50.138;14.544;2022-10-16T20:57:35;99095.16;;;14.60;87.01
75577;BME280;64157;50.138;14.544;2022-10-16T21:00:01;99085.13;;;14.56;86.37
75577;BME280;64157;50.138;14.544;2022-10-16T21:02:26;99083.06;;;14.53;86.38
75577;BME280;64157;50.138;14.544;2022-10-16T21:04:52;99103.66;;;14.67;86.29
75577;BME280;64157;50.138;14.544;2022-10-16T21:07:17;99075.00;;;14.63;85.48
75577;BME280;64157;50.138;14.544;2022-10-16T21:09:42;99101.66;;;14.84;85.23
75577;BME280;64157;50.138;14.544;2022-10-16T21:12:08;99080.91;;;14.77;84.93
75577;BME280;64157;50.138;14.544;2022-10-16T21:14:34;99089.13;;;14.90;84.74
75577;BME280;64157;50.138;14.544;2022-10-16T21:16:59;99104.16;;;15.04;84.64
75577;BME280;64157;50.138;14.544;2022-10-16T21:19:29;99110.88;;;15.03;84.73
75577;BME280;64157;50.138;14.544;2022-10-16T21:21:55;99075.34;;;14.77;84.91
75577;BME280;64157;50.138;14.544;2022-10-16T21:24:20;99085.00;;;14.84;85.06
75577;BME280;64157;50.138;14.544;2022-10-16T21:26:45;99115.53;;;14.99;85.09
75577;BME280;64157;50.138;14.544;2022-10-16T21:29:11;99082.78;;;14.73;85.11
75577;BME280;64157;50.138;14.544;2022-10-16T21:31:37;99067.13;;;14.65;85.09
75577;BME280;64157;50.138;14.544;2022-10-16T21:34:03;99110.38;;;14.82;84.98
75577;BME280;64157;50.138;14.544;2022-10-16T21:36:31;99122.28;;;14.83;85.36
75577;BME280;64157;50.138;14.544;2022-10-16T21:39:02;99084.31;;;14.55;85.38
75577;BME280;64157;50.138;14.544;2022-10-16T21:41:28;99101.53;;;14.61;85.91
75577;BME280;64157;50.138;14.544;2022-10-16T21:43:55;99074.28;;;14.35;86.03
75577;BME280;64157;50.138;14.544;2022-10-16T21:46:22;99134.84;;;14.76;85.75
75577;BME280;64157;50.138;14.544;2022-10-16T21:48:51;99139.75;;;14.67;86.44
75577;BME280;64157;50.138;14.544;2022-10-16T21:51:17;99107.78;;;14.42;86.78
75577;BME280;64157;50.138;14.544;2022-10-16T21:53:43;99133.59;;;14.58;86.52
75577;BME280;64157;50.138;14.544;2022-10-16T21:56:13;99129.03;;;14.50;86.56
75577;BME280;64157;50.138;14.544;2022-10-16T21:58:38;99132.97;;;14.49;86.53
75577;BME280;64157;50.138;14.544;2022-10-16T22:01:08;99119.34;;;14.44;86.65
75577;BME280;64157;50.138;14.544;2022-10-16T22:03:34;99137.06;;;14.55;86.31
75577;BME280;64157;50.138;14.544;2022-10-16T22:06:00;99148.84;;;14.64;86.22
75577;BME280;64157;50.138;14.544;2022-10-16T22:08:26;99152.31;;;14.77;85.69
75577;BME280;64157;50.138;14.544;2022-10-16T22:10:52;99148.38;;;14.78;85.77
75577;BME280;64157;50.138;14.544;2022-10-16T22:13:17;99143.78;;;14.54;86.15
75577;BME280;64157;50.138;14.544;2022-10-16T22:15:49;99074.03;;;13.96;86.53
75577;BME280;64157;50.138;14.544;2022-10-16T22:18:20;99157.97;;;14.37;86.92
75577;BME280;64157;50.138;14.544;2022-10-16T22:20:46;99172.94;;;14.60;86.67
75577;BME280;64157;50.138;14.544;2022-10-16T22:23:12;99157.22;;;14.52;86.26
75577;BME280;64157;50.138;14.544;2022-10-16T22:25:38;99154.91;;;14.54;86.03
75577;BME280;64157;50.138;14.544;2022-10-16T22:28:03;99154.03;;;14.50;85.78
75577;BME280;64157;50.138;14.544;2022-10-16T22:30:29;99140.81;;;14.31;85.68
75577;BME280;64157;50.138;14.544;2022-10-16T22:32:54;99176.25;;;14.50;85.84
75577;BME280;64157;50.138;14.544;2022-10-16T22:35:20;99155.50;;;14.32;85.92
75577;BME280;64157;50.138;14.544;2022-10-16T22:37:45;99167.06;;;14.34;85.99
75577;BME280;64157;50.138;14.544;2022-10-16T22:40:11;99167.75;;;14.31;86.45
75577;BME280;64157;50.138;14.544;2022-10-16T22:42:36;99153.22;;;14.22;86.36
75577;BME280;64157;50.138;14.544;2022-10-16T22:45:02;99173.91;;;14.24;86.65
75577;BME280;64157;50.138;14.544;2022-10-16T22:47:27;99158.03;;;14.09;86.92
75577;BME280;64157;50.138;14.544;2022-10-16T22:49:53;99164.13;;;14.15;86.74
75577;BME280;64157;50.138;14.544;2022-10-16T22:52:18;99148.50;;;13.94;87.06
75577;BME280;64157;50.138;14.544;2022-10-16T22:54:44;99168.47;;;14.00;87.40
75577;BME280;64157;50.138;14.544;2022-10-16T22:57:09;99184.31;;;13.99;87.43
75577;BME280;64157;50.138;14.544;2022-10-16T22:59:35;99191.66;;;13.80;88.11
75577;BME280;64157;50.138;14.544;2022-10-16T23:02:00;99183.38;;;13.67;88.64
75577;BME280;64157;50.138;14.544;2022-10-16T23:04:26;99166.00;;;13.43;88.91
75577;BME280;64157;50.138;14.544;2022-10-16T23:06:51;99182.88;;;13.37;89.06
75577;BME280;64157;50.138;14.544;2022-10-16T23:09:16;99146.16;;;13.04;88.96
75577;BME280;64157;50.138;14.544;2022-10-16T23:11:42;99171.22;;;13.08;89.40
75577;BME280;64157;50.138;14.544;2022-10-16T23:14:07;99177.78;;;13.15;89.51
75577;BME280;64157;50.138;14.544;2022-10-16T23:16:33;99190.59;;;12.95;89.78
75577;BME280;64157;50.138;14.544;2022-10-16T23:18:58;99189.53;;;12.76;90.01
75577;BME280;64157;50.138;14.544;2022-10-16T23:21:25;99128.81;;;12.34;90.27
75577;BME280;64157;50.138;14.544;2022-10-16T23:23:51;99168.53;;;12.50;90.39
75577;BME280;64157;50.138;14.544;2022-10-16T23:26:20;99181.56;;;12.50;90.68
75577;BME280;64157;50.138;14.544;2022-10-16T23:28:46;99202.44;;;12.59;90.94
75577;BME280;64157;50.138;14.544;2022-10-16T23:31:13;99190.88;;;12.57;91.15
75577;BME280;64157;50.138;14.544;2022-10-16T23:33:39;99211.56;;;12.60;91.20
75577;BME280;64157;50.138;14.544;2022-10-16T23:36:18;99191.47;;;12.51;91.37
75577;BME280;64157;50.138;14.544;2022-10-16T23:38:45;99206.94;;;12.64;91.46
75577;BME280;64157;50.138;14.544;2022-10-16T23:41:12;99212.38;;;12.60;91.41
75577;BME280;64157;50.138;14.544;2022-10-16T23:43:38;99205.75;;;12.53;91.36
75577;BME280;64157;50.138;14.544;2022-10-16T23:46:04;99206.56;;;12.53;91.49
75577;BME280;64157;50.138;14.544;2022-10-16T23:48:30;99192.00;;;12.32;91.33
75577;BME280;64157;50.138;14.544;2022-10-16T23:50:55;99181.72;;;12.20;91.34
75577;BME280;64157;50.138;14.544;2022-10-16T23:53:21;99195.88;;;12.19;91.26
75577;BME280;64157;50.138;14.544;2022-10-16T23:55:47;99161.84;;;11.85;91.43
75577;BME280;64157;50.138;14.544;2022-10-16T23:58:12;99216.38;;;12.18;91.51
